Fort Lewis, WA

11:40 AM PDT on October 21, 2014 (GMT -0700)
Gray Army Air Field | Change Station
CLOSE
Current Station
Airport
Location: Fort Lewis,
Elevation: 302 ft
Nearby Weather Stations

Elev 302 ft 47.08 °N, 122.58 °W | Updated 4 minutes ago

Partly Cloudy
Partly Cloudy
61 °F
Feels Like 61 °F
N
17
Wind Variable Wind from SSE
Gusts 23 mph

Today
High -- | Low -- °F
--% Chance of Precip.
Yesterday
High -- | Low -- °F
Precip. -- in
7:37 AM 6:11 PM
Waning Crescent, 5% visible
Pressure 29.92 in
Visibility 10.0 miles
Clouds Few 11000 ft
Dew Point 50 °F
Humidity 68%
Rainfall 0.01 in
Snow Depth Not available.
UV 3 out of 12
Pollen .40 out of 12
PM2.5 Good
Flu Activity Sporadic
SPECI KGRF 211836Z AUTO 16015G20KT 10SM DZ FEW110 16/10 A2992 RMK AO2

More Conditions Fewer Conditions

Pressure 29.92 in
Visibility 10.0 miles
Clouds Few 11000 ft
Dew Point 50 °F
Humidity 68%
Rainfall 0.01 in
Snow Depth Not available.
UV 3 out of 12
Pollen .40 out of 12
PM2.5 Good
Flu Activity Sporadic
SPECI KGRF 211836Z AUTO 16015G20KT 10SM DZ FEW110 16/10 A2992 RMK AO2

More Conditions Fewer Conditions

10-Day Weather Forecast

Almanac

Astronomy

Oct. 21, 2014 Rise Set
Actual Time 7:37 AM PDT 6:11 PM PDT
Civil Twilight 7:06 AM PDT 6:42 PM PDT
Nautical Twilight 6:30 AM PDT 7:18 PM PDT
Astronomical Twilight 5:55 AM PDT 7:53 PM PDT
Moon 5:18 AM PDT 5:15 PM PDT
Length of Visible Light 11h 36m
Length of Day
10h 34m
Tomorrow will be 3m 12s shorter.
Waning Crescent, 5% of the Moon is Illuminated
Today
Waning Crescent
Oct 23
New
Oct 30
First Quarter
Nov 6
Full
Nov 14
Last Quarter

Today's Extremes

State Highs State Lows

Community

WunderPhotos

Upload Photos

1,763,742 photos uploaded!

Nearby

Air Quality

  Air Quality AQ Index Pollutant
Yesterday Good
PM2.5
Current Good
PM2.5
Tuesday Good
PM2.5
Wednesday Good
PM2.5
Thursday Good
PM2.5
Friday Good
PM2.5
Saturday Good
PM2.5

Snow Depth

Station Depth Elevation
Rex River 0 in 4000 ft
Mount Gardner 0 in 3000 ft
Meadows Pass 0 in 3500 ft
Morse Lake 0 in 5400 ft
Dungeness 0 in 4100 ft

Earthquake Activity

City Distance Mag. Time & Date
No recent earthquake activity has been reported nearby.
Minimum magnitude displayed is 2.5.

Coastal Water Temperatures

Place Temperature
Port Townsend, WA 52.0 °F
Seattle, WA 55.0 °F
Friday Harbor, WA 51.1 °F
Tacoma, WA 54.0 °F

Nearby Weather Stations